Time;durP1;ratioP1;P1;durP2;ratioP2;P2;SDS_P1;SDS_P2;PMS_P1;PMS_P2;Temp;Humidity;BMP_temperature;BMP_pressure;BME280_temperature;BME280_humidity;BME280_pressure;Samples;Min_cycle;Max_cycle;Signal;HPM_P1;HPM_P2
2023/04/26 00:02:22;;;;;;;15.57;11.27;;;;;;;10.32;48.22;99848.06;5015635;28;101398;-77
2023/04/26 00:04:54;;;;;;;17.85;12.77;;;;;;;10.26;48.39;99844.81;4999297;28;101424;-78
2023/04/26 00:07:23;;;;;;;13.35;11.55;;;;;;;10.29;48.24;99857.84;5004037;28;97256;-78
2023/04/26 00:09:52;;;;;;;17.88;12.30;;;;;;;10.27;47.96;99855.31;5018085;27;97036;-77
2023/04/26 00:12:18;;;;;;;12.73;11.27;;;;;;;10.17;48.26;99840.78;5032321;27;100536;-77
2023/04/26 00:14:44;;;;;;;14.82;11.95;;;;;;;10.20;48.58;99859.88;5023296;28;97775;-77
2023/04/26 00:17:09;;;;;;;15.60;12.27;;;;;;;10.21;48.43;99852.91;5015919;28;97292;-77
2023/04/26 00:19:35;;;;;;;12.60;11.38;;;;;;;10.23;48.55;99850.19;5015841;28;97247;-78
2023/04/26 00:22:01;;;;;;;12.73;11.27;;;;;;;10.20;48.43;99846.78;5009102;28;98347;-77
2023/04/26 00:24:27;;;;;;;18.70;11.90;;;;;;;10.20;48.04;99854.63;5026707;27;101930;-78
2023/04/26 00:26:54;;;;;;;15.98;11.73;;;;;;;10.04;48.52;99832.56;5003779;28;97734;-77
2023/04/26 00:29:21;;;;;;;13.40;11.02;;;;;;;10.12;48.25;99858.47;5011571;27;97318;-77
2023/04/26 00:31:47;;;;;;;14.38;11.70;;;;;;;10.11;48.60;99856.78;5033924;27;100907;-77
2023/04/26 00:34:12;;;;;;;17.67;11.13;;;;;;;10.11;48.46;99864.66;5041173;27;101255;-77
2023/04/26 00:36:38;;;;;;;18.00;11.93;;;;;;;10.05;48.55;99855.25;5009791;28;96778;-78
2023/04/26 00:39:03;;;;;;;21.38;12.63;;;;;;;10.01;48.76;99861.53;4995515;28;96881;-77
2023/04/26 00:41:29;;;;;;;17.48;11.85;;;;;;;9.99;48.84;99871.22;5012381;28;98451;-78
2023/04/26 00:43:55;;;;;;;17.67;12.90;;;;;;;9.93;48.78;99872.31;5031356;28;101352;-79
2023/04/26 00:46:21;;;;;;;12.95;11.18;;;;;;;9.91;48.76;99870.66;5022504;28;97202;-79
2023/04/26 00:48:47;;;;;;;14.25;11.73;;;;;;;9.87;49.14;99869.09;5004011;28;96950;-77
2023/04/26 00:51:13;;;;;;;16.70;12.30;;;;;;;9.81;48.59;99866.69;5020132;28;98054;-79
2023/04/26 00:53:39;;;;;;;14.27;12.20;;;;;;;9.86;48.87;99880.47;5041597;27;101434;-77
2023/04/26 00:56:15;;;;;;;17.52;12.00;;;;;;;9.87;48.72;99882.19;5008990;28;96840;-78
2023/04/26 00:58:41;;;;;;;12.90;11.50;;;;;;;9.89;49.27;99888.22;5015091;27;97344;-85
2023/04/26 01:01:06;;;;;;;17.42;11.73;;;;;;;9.88;48.98;99883.88;5014745;28;100839;-81
2023/04/26 01:03:32;;;;;;;16.60;11.90;;;;;;;9.81;49.24;99875.41;4998441;28;101318;-77
2023/04/26 01:05:59;;;;;;;17.67;12.95;;;;;;;9.78;48.78;99877.31;4999268;28;97083;-79
2023/04/26 01:08:25;;;;;;;12.77;11.32;;;;;;;9.80;48.81;99886.78;4997270;28;97326;-78
2023/04/26 01:10:52;;;;;;;14.90;11.40;;;;;;;9.75;48.73;99883.50;4996210;28;102134;-77
2023/04/26 01:13:17;;;;;;;15.02;12.25;;;;;;;9.62;49.24;99866.53;5027565;27;101723;-78
2023/04/26 01:15:46;;;;;;;15.05;11.70;;;;;;;9.63;49.32;99870.84;5014865;28;96950;-82
2023/04/26 01:18:15;;;;;;;13.95;11.95;;;;;;;9.69;48.44;99889.00;5014838;28;97179;-78
2023/04/26 01:20:41;;;;;;;13.88;12.00;;;;;;;9.61;48.85;99884.00;5030906;28;98602;-77
2023/04/26 01:23:08;;;;;;;13.02;11.63;;;;;;;9.47;48.89;99865.31;5030443;28;98258;-81
2023/04/26 01:25:34;;;;;;;20.23;13.15;;;;;;;9.62;49.13;99900.59;5033187;27;96810;-77
2023/04/26 01:28:00;;;;;;;14.27;12.05;;;;;;;9.52;49.16;99886.97;4996713;28;98155;-80
2023/04/26 01:30:25;;;;;;;14.70;12.02;;;;;;;9.53;49.39;99896.53;5012647;28;101565;-80
2023/04/26 01:32:51;;;;;;;15.70;11.07;;;;;;;9.41;49.01;99881.28;5034098;27;98257;-78
2023/04/26 01:35:17;;;;;;;12.00;10.80;;;;;;;9.40;49.40;99890.91;5014538;28;96770;-77
2023/04/26 01:37:45;;;;;;;14.65;10.55;;;;;;;9.44;49.58;99902.13;4999304;28;97223;-81
2023/04/26 01:40:11;;;;;;;12.50;11.18;;;;;;;9.44;49.79;99912.59;5031669;28;98081;-82
2023/04/26 01:42:37;;;;;;;12.45;11.23;;;;;;;9.34;49.51;99900.72;4996120;28;101379;-78
2023/04/26 01:45:03;;;;;;;12.80;10.70;;;;;;;9.29;49.59;99901.75;5013230;28;97287;-78
2023/04/26 01:47:48;;;;;;;14.73;11.23;;;;;;;9.37;49.77;99901.50;5037076;27;96969;-77
2023/04/26 01:50:14;;;;;;;13.27;11.55;;;;;;;9.32;49.61;99905.19;5029623;27;101256;-77
2023/04/26 01:52:39;;;;;;;15.90;11.52;;;;;;;9.25;50.08;99915.00;5014266;28;100900;-77
2023/04/26 01:55:06;;;;;;;12.30;9.95;;;;;;;9.20;49.77;99909.94;5030750;28;97349;-77
2023/04/26 01:57:31;;;;;;;13.80;11.02;;;;;;;9.22;50.27;99909.88;5027865;28;97405;-77
2023/04/26 01:59:58;;;;;;;14.23;11.10;;;;;;;9.18;49.99;99916.97;5013567;28;101381;-77
2023/04/26 02:02:25;;;;;;;13.18;11.50;;;;;;;9.18;50.60;99910.91;5014257;28;101195;-77
2023/04/26 02:04:50;;;;;;;13.73;11.48;;;;;;;9.07;50.44;99906.00;5014576;28;97373;-77
2023/04/26 02:07:16;;;;;;;14.25;11.02;;;;;;;9.06;50.13;99902.53;5011832;28;96936;-78
2023/04/26 02:09:45;;;;;;;12.63;11.35;;;;;;;9.06;50.69;99904.31;5014312;28;97741;-77
2023/04/26 02:12:11;;;;;;;12.93;11.60;;;;;;;9.04;50.43;99914.81;5005065;28;101635;-82
2023/04/26 02:14:37;;;;;;;12.23;10.68;;;;;;;9.05;50.95;99910.47;5014075;28;96831;-77
2023/04/26 02:17:03;;;;;;;13.88;10.95;;;;;;;8.99;50.61;99908.06;5004598;28;96794;-77
2023/04/26 02:19:29;;;;;;;12.85;10.35;;;;;;;8.99;51.09;99906.31;5041483;27;97941;-77
2023/04/26 02:21:56;;;;;;;16.33;11.30;;;;;;;9.02;50.62;99913.19;5034847;27;101416;-77
2023/04/26 02:24:23;;;;;;;13.70;10.98;;;;;;;9.01;50.84;99907.09;5013523;28;97329;-77
2023/04/26 02:26:49;;;;;;;13.65;11.80;;;;;;;9.03;50.65;99901.81;5014085;28;97173;-77
2023/04/26 02:29:14;;;;;;;14.10;11.18;;;;;;;8.95;51.00;99906.44;5019126;28;101540;-77
2023/04/26 02:31:40;;;;;;;12.95;11.15;;;;;;;8.98;50.96;99911.56;5028338;28;101499;-77
2023/04/26 02:34:05;;;;;;;12.02;11.02;;;;;;;8.77;51.24;99887.84;5026876;27;96902;-77
2023/04/26 02:36:32;;;;;;;12.30;11.15;;;;;;;8.94;51.38;99917.84;5007862;28;97126;-77
2023/04/26 02:38:58;;;;;;;12.10;10.88;;;;;;;8.92;51.04;99914.41;5013094;28;100886;-77
2023/04/26 02:41:24;;;;;;;12.40;11.30;;;;;;;8.92;50.99;99917.03;5030100;28;101519;-78
2023/04/26 02:43:50;;;;;;;13.63;11.30;;;;;;;8.92;51.09;99922.25;5013408;28;97045;-77
2023/04/26 02:46:16;;;;;;;13.02;11.68;;;;;;;8.90;51.27;99919.72;5013735;28;96855;-77
2023/04/26 02:48:42;;;;;;;14.68;11.73;;;;;;;8.90;51.24;99918.81;5009672;28;100877;-77
2023/04/26 02:51:07;;;;;;;12.45;10.65;;;;;;;8.85;51.51;99911.16;5018075;27;101179;-77
2023/04/26 02:53:33;;;;;;;14.30;11.45;;;;;;;8.86;51.65;99918.06;5026616;27;96723;-77
2023/04/26 02:56:00;;;;;;;12.18;10.98;;;;;;;8.84;51.67;99917.25;5056170;27;96899;-77
2023/04/26 02:58:27;;;;;;;13.27;11.40;;;;;;;8.84;51.96;99918.16;5011584;28;101442;-77
2023/04/26 03:00:57;;;;;;;12.65;11.40;;;;;;;8.79;51.91;99914.81;5000625;28;101439;-78
2023/04/26 03:03:24;;;;;;;12.73;11.32;;;;;;;8.84;51.84;99923.38;4996615;28;97229;-77
2023/04/26 03:05:49;;;;;;;11.38;10.18;;;;;;;8.81;51.87;99925.22;5025556;28;97304;-77
2023/04/26 03:08:15;;;;;;;11.40;10.32;;;;;;;8.73;52.06;99917.63;5013237;28;98393;-77
2023/04/26 03:10:40;;;;;;;11.95;11.00;;;;;;;8.80;51.76;99923.53;4995906;28;101334;-79
2023/04/26 03:13:07;;;;;;;12.13;10.57;;;;;;;8.69;52.38;99913.41;5000908;28;97341;-77
2023/04/26 03:15:33;;;;;;;11.85;10.65;;;;;;;8.75;52.41;99917.56;5031808;28;96730;-76
2023/04/26 03:17:58;;;;;;;12.10;10.13;;;;;;;8.79;52.13;99938.38;5033710;28;97889;-77
2023/04/26 03:20:25;;;;;;;14.02;11.55;;;;;;;8.75;51.84;99923.66;5007576;28;101780;-77
2023/04/26 03:22:50;;;;;;;11.35;10.25;;;;;;;8.73;52.53;99935.09;5031036;28;97175;-78
2023/04/26 03:25:17;;;;;;;11.75;10.85;;;;;;;8.68;52.55;99927.41;5026594;27;96863;-78
2023/04/26 03:27:42;;;;;;;11.57;9.73;;;;;;;8.64;52.29;99925.78;5033533;28;97302;-77
2023/04/26 03:30:08;;;;;;;11.00;10.10;;;;;;;8.73;52.48;99946.44;5016251;28;101100;-77
2023/04/26 03:32:35;;;;;;;13.18;11.13;;;;;;;8.67;52.38;99941.41;5016546;28;96819;-77
2023/04/26 03:35:01;;;;;;;11.93;10.85;;;;;;;8.57;52.39;99932.97;5014882;28;96863;-76
2023/04/26 03:37:27;;;;;;;10.57;9.63;;;;;;;8.68;52.63;99950.94;5015786;28;101704;-77
2023/04/26 03:39:59;;;;;;;11.60;10.10;;;;;;;8.60;52.80;99938.09;5001466;28;101971;-78
2023/04/26 03:42:25;;;;;;;11.18;10.20;;;;;;;8.65;52.98;99948.44;5024631;28;97101;-77
2023/04/26 03:44:50;;;;;;;11.23;10.35;;;;;;;8.64;52.58;99957.19;5028032;28;96953;-76
2023/04/26 03:47:16;;;;;;;12.95;9.05;;;;;;;8.65;52.69;99953.66;5002005;28;101002;-76
2023/04/26 03:49:41;;;;;;;11.20;9.18;;;;;;;8.65;52.83;99958.91;5015694;28;101731;-78
2023/04/26 03:52:08;;;;;;;11.35;10.00;;;;;;;8.65;53.38;99974.59;5015710;28;97131;-76
2023/04/26 03:54:34;;;;;;;10.75;9.70;;;;;;;8.60;52.65;99971.25;4999395;27;97254;-76
2023/04/26 03:56:59;;;;;;;10.40;9.40;;;;;;;8.62;53.37;99972.06;5029920;27;101045;-80
2023/04/26 03:59:25;;;;;;;11.68;10.45;;;;;;;8.64;53.09;99972.00;5019745;28;101401;-76
2023/04/26 04:01:51;;;;;;;10.65;9.73;;;;;;;8.63;53.14;99973.78;5016483;28;97205;-76
2023/04/26 04:04:17;;;;;;;10.82;9.15;;;;;;;8.57;53.09;99977.44;5014033;28;96927;-77
2023/04/26 04:06:43;;;;;;;10.70;9.60;;;;;;;8.60;53.23;99971.25;4999371;28;101132;-76
2023/04/26 04:09:10;;;;;;;10.52;9.48;;;;;;;8.60;53.04;99977.34;5011739;28;101550;-76
2023/04/26 04:11:36;;;;;;;11.95;9.57;;;;;;;8.64;52.99;99985.97;5014628;28;97494;-77
2023/04/26 04:14:01;;;;;;;16.08;10.18;;;;;;;8.66;53.32;99991.16;4998933;28;96837;-76
2023/04/26 04:16:27;;;;;;;10.15;9.15;;;;;;;8.67;53.13;99985.00;5015804;28;101227;-78
2023/04/26 04:18:53;;;;;;;13.57;9.57;;;;;;;8.72;53.40;99986.56;5013350;28;97440;-77
2023/04/26 04:21:18;;;;;;;11.05;9.65;;;;;;;8.77;53.00;99997.75;4998733;28;96820;-76
2023/04/26 04:23:44;;;;;;;12.13;9.88;;;;;;;8.86;53.42;99993.97;5023162;28;97332;-76
2023/04/26 04:26:11;;;;;;;12.57;9.70;;;;;;;8.92;53.51;99998.16;5008609;28;101332;-77
2023/04/26 04:28:41;;;;;;;10.63;9.55;;;;;;;8.94;52.62;99997.22;5047392;27;101029;-77
2023/04/26 04:31:10;;;;;;;13.93;9.38;;;;;;;8.93;52.61;99998.13;5034945;27;97263;-76
2023/04/26 04:33:36;;;;;;;10.57;9.57;;;;;;;8.92;52.43;100001.63;5015131;28;97286;-76
2023/04/26 04:36:02;;;;;;;10.30;9.10;;;;;;;8.95;52.97;99998.06;5012000;28;99371;-76
2023/04/26 04:38:28;;;;;;;10.95;9.50;;;;;;;8.80;52.86;99979.34;5012976;28;100477;-77
2023/04/26 04:40:54;;;;;;;11.18;9.15;;;;;;;8.92;52.78;100003.41;5015408;28;96849;-77
2023/04/26 04:43:20;;;;;;;10.75;9.68;;;;;;;8.94;52.69;99998.97;5015132;28;97035;-77
2023/04/26 04:45:48;;;;;;;9.77;8.88;;;;;;;8.88;52.69;99986.94;5012086;28;101351;-76
2023/04/26 04:48:14;;;;;;;11.98;10.80;;;;;;;8.92;52.87;99993.78;5028729;28;98307;-77
2023/04/26 04:50:43;;;;;;;10.82;9.05;;;;;;;9.05;52.80;100015.22;4999692;28;96786;-78
2023/04/26 04:53:09;;;;;;;9.45;8.52;;;;;;;9.05;52.99;100015.22;5019079;28;97281;-77
2023/04/26 04:55:36;;;;;;;9.50;8.45;;;;;;;9.10;53.02;100017.66;5010328;28;100313;-77
2023/04/26 04:58:02;;;;;;;11.07;9.48;;;;;;;9.12;52.64;100013.22;5027444;28;101733;-78
2023/04/26 05:00:29;;;;;;;9.88;8.93;;;;;;;9.04;52.68;100009.09;5012612;28;96773;-77
2023/04/26 05:03:03;;;;;;;8.98;8.20;;;;;;;9.22;52.77;100017.25;5013800;28;97581;-78
2023/04/26 05:05:30;;;;;;;12.23;9.48;;;;;;;9.43;52.54;100015.69;5012302;28;101825;-81
2023/04/26 05:07:55;;;;;;;12.63;10.15;;;;;;;9.60;52.57;100015.97;5009940;28;101561;-78
2023/04/26 05:10:21;;;;;;;12.00;9.30;;;;;;;9.75;52.15;100014.56;5013747;28;96787;-76
2023/04/26 05:12:48;;;;;;;10.57;8.57;;;;;;;9.94;51.57;100028.72;5027647;27;97169;-77
2023/04/26 05:15:13;;;;;;;14.05;8.73;;;;;;;10.03;51.54;100022.28;5009171;28;101737;-76
2023/04/26 05:17:40;;;;;;;10.73;8.50;;;;;;;10.21;50.93;100033.88;5017656;28;101114;-76
2023/04/26 05:20:24;;;;;;;10.13;9.10;;;;;;;10.32;50.30;100025.63;5016866;28;97956;-76
2023/04/26 05:22:50;;;;;;;11.68;8.90;;;;;;;10.45;50.43;100026.03;5014039;28;97164;-76
2023/04/26 05:25:16;;;;;;;10.95;8.38;;;;;;;10.53;50.22;100013.44;5002949;28;101860;-81
2023/04/26 05:27:44;;;;;;;12.65;8.57;;;;;;;10.72;49.64;100032.81;5013007;28;101213;-77
2023/04/26 05:30:29;;;;;;;11.98;8.57;;;;;;;10.79;49.62;100020.31;5017615;28;98728;-80
2023/04/26 05:33:12;;;;;;;10.82;9.05;;;;;;;11.02;49.23;100030.75;5009067;28;96960;-82
2023/04/26 05:35:47;;;;;;;11.93;9.80;;;;;;;11.21;49.20;100041.38;5014539;27;101570;-78
2023/04/26 05:38:14;;;;;;;10.90;9.77;;;;;;;11.30;48.44;100030.47;5011542;28;101212;-79
2023/04/26 05:40:39;;;;;;;11.23;9.13;;;;;;;11.51;48.58;100041.00;4996848;28;97392;-84
2023/04/26 05:43:06;;;;;;;10.02;9.00;;;;;;;11.56;47.37;100032.00;4996200;28;96998;-74
2023/04/26 05:45:33;;;;;;;10.85;9.77;;;;;;;11.69;47.72;100039.38;5022239;27;102007;-76
2023/04/26 05:47:59;;;;;;;11.68;9.73;;;;;;;11.77;47.11;100037.25;4998966;28;101219;-77
2023/04/26 05:50:25;;;;;;;11.80;9.30;;;;;;;11.90;47.27;100035.00;5009424;27;96930;-76
2023/04/26 05:52:50;;;;;;;12.57;9.00;;;;;;;12.12;46.50;100035.75;5011383;28;96944;-77
2023/04/26 05:55:16;;;;;;;10.25;9.15;;;;;;;12.19;45.74;100039.81;5007470;28;102107;-77
2023/04/26 05:57:42;;;;;;;16.02;9.32;;;;;;;12.31;45.52;100053.34;5010474;28;101402;-77
2023/04/26 06:00:08;;;;;;;10.93;8.43;;;;;;;12.41;46.20;100031.78;5003536;27;97686;-78
2023/04/26 06:02:39;;;;;;;;;;;;;;;12.69;45.69;100048.94;5018873;27;97184;-76
2023/04/26 06:05:07;;;;;;;9.82;8.82;;;;;;;13.01;45.27;100043.91;5012308;28;99059;-77
2023/04/26 06:07:34;;;;;;;11.55;9.13;;;;;;;13.19;44.40;100031.63;5026544;27;100638;-77
2023/04/26 06:10:01;;;;;;;12.02;9.13;;;;;;;13.42;44.07;100051.59;5007298;28;98279;-76
2023/04/26 06:12:28;;;;;;;12.32;8.60;;;;;;;13.56;43.47;100049.13;5022109;27;96905;-77
2023/04/26 06:14:54;;;;;;;14.27;9.10;;;;;;;13.64;43.39;100043.44;5025774;27;98872;-77
2023/04/26 06:17:24;;;;;;;10.43;8.63;;;;;;;13.91;43.52;100047.31;5011405;28;101607;-76
2023/04/26 06:19:50;;;;;;;17.20;8.95;;;;;;;14.08;42.28;100054.34;5008456;28;97176;-78
2023/04/26 06:22:15;;;;;;;11.48;9.15;;;;;;;14.25;41.60;100053.44;5022892;27;98050;-77
2023/04/26 06:24:41;;;;;;;9.80;8.60;;;;;;;14.33;42.00;100063.59;5025554;27;101088;-77
2023/04/26 06:27:07;;;;;;;12.07;9.30;;;;;;;14.58;40.98;100060.53;5014852;28;100525;-78
2023/04/26 06:29:34;;;;;;;12.48;9.30;;;;;;;14.86;40.70;100068.59;4993509;27;97222;-78
2023/04/26 06:32:00;;;;;;;15.95;8.93;;;;;;;15.17;40.06;100065.09;5014772;28;96942;-77
2023/04/26 06:34:26;;;;;;;12.82;8.93;;;;;;;15.40;39.18;100066.41;5024055;28;101258;-77
2023/04/26 06:36:52;;;;;;;12.00;8.93;;;;;;;15.35;39.31;100033.25;4995745;28;100849;-86
2023/04/26 06:39:19;;;;;;;9.88;8.90;;;;;;;15.91;38.67;100039.66;5011407;28;96889;-86
2023/04/26 06:41:45;;;;;;;10.63;9.07;;;;;;;16.00;37.92;100035.59;5013159;27;96929;-82
2023/04/26 06:44:11;;;;;;;15.65;10.35;;;;;;;16.51;37.88;100057.97;5011486;28;100400;-83
2023/04/26 06:46:41;;;;;;;11.60;9.43;;;;;;;16.79;36.99;100058.94;5024517;28;101472;-93
2023/04/26 06:49:07;;;;;;;11.75;10.73;;;;;;;17.02;36.72;100049.50;5001926;28;97181;-80
2023/04/26 06:51:32;;;;;;;11.75;10.65;;;;;;;17.53;36.52;100062.91;5019391;28;96951;-94
2023/04/26 06:53:59;;;;;;;18.33;10.93;;;;;;;17.73;35.69;100048.28;5038922;28;100287;-91
2023/04/26 06:56:25;;;;;;;13.98;12.38;;;;;;;17.94;35.00;100043.34;5020848;28;101123;-91
2023/04/26 06:59:04;;;;;;;13.98;12.50;;;;;;;18.44;33.95;100060.22;5010653;28;97372;-92
2023/04/26 07:01:32;;;;;;;12.57;9.65;;;;;;;18.76;33.75;100055.31;5053433;27;96857;-93
2023/04/26 07:04:02;;;;;;;11.80;10.55;;;;;;;19.17;33.20;100045.25;5029331;28;101994;-91
2023/04/26 07:06:28;;;;;;;11.45;9.65;;;;;;;19.50;32.45;100055.19;5030296;28;101170;-88
2023/04/26 07:08:54;;;;;;;14.43;10.10;;;;;;;19.66;32.20;100060.22;5022061;28;96745;-86
2023/04/26 07:11:20;;;;;;;15.43;9.55;;;;;;;19.57;31.52;100050.22;5025736;27;97494;-82
2023/04/26 07:13:45;;;;;;;11.73;9.20;;;;;;;19.71;31.74;100057.22;5015198;28;98046;-77
2023/04/26 07:16:11;;;;;;;11.05;9.90;;;;;;;19.64;31.89;100057.66;5029719;27;97918;-82
2023/04/26 07:18:38;;;;;;;14.02;10.48;;;;;;;20.23;30.93;100047.84;5014419;28;96976;-78
2023/04/26 07:21:04;;;;;;;11.25;9.82;;;;;;;20.60;30.48;100053.81;5028951;27;97365;-84
2023/04/26 07:23:30;;;;;;;11.20;9.27;;;;;;;20.54;30.02;100048.97;5041040;27;100895;-82
2023/04/26 07:25:55;;;;;;;13.35;9.18;;;;;;;21.05;29.65;100048.38;5054418;27;97910;-83
2023/04/26 07:28:21;;;;;;;11.88;10.63;;;;;;;21.51;29.17;100043.75;5012629;28;96780;-83
2023/04/26 07:30:46;;;;;;;13.35;9.38;;;;;;;21.13;29.60;100055.75;5011870;28;96989;-81
2023/04/26 07:33:12;;;;;;;10.73;9.65;;;;;;;20.75;29.03;100054.41;5043774;27;101023;-81
2023/04/26 07:35:37;;;;;;;10.25;9.10;;;;;;;21.03;28.92;100045.84;5015035;28;101497;-86
2023/04/26 07:38:03;;;;;;;11.65;10.55;;;;;;;20.95;28.72;100058.97;5016440;28;96735;-85
2023/04/26 07:40:30;;;;;;;11.27;10.27;;;;;;;20.30;29.64;100041.06;5017495;28;97139;-86
2023/04/26 07:42:55;;;;;;;10.50;9.50;;;;;;;20.31;29.76;100035.63;5013493;28;97765;-86
2023/04/26 07:45:21;;;;;;;9.93;8.82;;;;;;;20.93;28.74;100033.38;5032122;28;101597;-85
2023/04/26 07:47:47;;;;;;;12.57;10.20;;;;;;;21.50;28.52;100052.72;5044658;27;97062;-84
2023/04/26 07:50:12;;;;;;;10.10;9.30;;;;;;;21.38;27.63;100051.91;4999094;28;97115;-84
2023/04/26 07:52:38;;;;;;;11.55;9.50;;;;;;;21.62;26.93;100057.88;5023584;27;101612;-86
2023/04/26 07:55:04;;;;;;;11.00;9.90;;;;;;;21.86;27.13;100040.75;5022162;27;99241;-87
2023/04/26 07:57:30;;;;;;;12.23;9.85;;;;;;;21.63;27.07;100024.00;5015061;27;97173;-87
2023/04/26 07:59:56;;;;;;;12.55;11.43;;;;;;;20.96;26.88;100041.97;5033869;27;96830;-86
2023/04/26 08:02:22;;;;;;;10.70;9.80;;;;;;;19.96;28.48;100051.69;4997371;27;101374;-88
2023/04/26 08:04:49;;;;;;;10.32;9.48;;;;;;;19.79;29.07;100057.47;5003189;27;101169;-86
2023/04/26 08:07:15;;;;;;;10.80;9.80;;;;;;;20.44;28.19;100008.81;5010590;27;97158;-87
2023/04/26 08:09:41;;;;;;;9.15;8.35;;;;;;;20.61;28.09;100052.00;5044513;27;98130;-86
2023/04/26 08:12:06;;;;;;;9.93;8.95;;;;;;;19.89;29.41;100040.66;5014322;28;96836;-86
2023/04/26 08:14:34;;;;;;;10.95;9.88;;;;;;;19.21;30.25;100049.38;5029586;27;100933;-85
2023/04/26 08:17:00;;;;;;;11.52;8.95;;;;;;;18.64;30.88;100060.59;5025664;27;97267;-87
2023/04/26 08:19:29;;;;;;;10.05;9.27;;;;;;;18.32;31.56;100074.38;5014695;28;96983;-86
2023/04/26 08:21:55;;;;;;;10.02;9.00;;;;;;;18.50;31.57;100066.91;5028820;27;100168;-84
2023/04/26 08:24:21;;;;;;;9.57;8.65;;;;;;;18.42;30.61;100074.59;5019149;28;101705;-85
2023/04/26 08:26:47;;;;;;;9.48;8.68;;;;;;;18.86;30.76;100063.44;4995072;28;97193;-84
2023/04/26 08:29:13;;;;;;;9.32;8.43;;;;;;;18.39;31.03;100065.00;5015996;28;97075;-85
2023/04/26 08:31:39;;;;;;;9.07;8.35;;;;;;;18.04;31.42;100080.75;5012429;28;100387;-84
2023/04/26 08:34:05;;;;;;;9.68;8.73;;;;;;;17.56;31.67;100083.09;5011070;27;101319;-85
2023/04/26 08:36:31;;;;;;;9.57;8.70;;;;;;;17.27;32.19;100085.84;5011054;27;96763;-81
2023/04/26 08:38:56;;;;;;;9.32;8.00;;;;;;;17.81;32.21;100077.88;5064547;27;97008;-84
2023/04/26 08:41:23;;;;;;;10.52;8.38;;;;;;;18.28;31.30;100080.84;5003268;28;101398;-81
2023/04/26 08:43:50;;;;;;;9.32;8.25;;;;;;;17.88;31.35;100079.13;5006041;28;102808;-83
2023/04/26 08:46:18;;;;;;;9.20;8.23;;;;;;;17.46;32.06;100068.75;5015518;28;97251;-85
2023/04/26 08:48:48;;;;;;;9.60;8.60;;;;;;;17.72;32.05;100083.78;5012154;27;97195;-84
2023/04/26 08:51:14;;;;;;;13.95;9.43;;;;;;;17.61;32.55;100087.13;5017205;27;97932;-84
2023/04/26 08:53:43;;;;;;;9.82;8.40;;;;;;;17.79;32.44;100087.72;5005298;28;100147;-85
2023/04/26 08:56:10;;;;;;;12.40;10.02;;;;;;;17.90;31.46;100087.00;5013128;27;97342;-85
2023/04/26 08:58:37;;;;;;;11.93;8.77;;;;;;;18.83;30.94;100084.94;5025985;27;97212;-84
2023/04/26 09:01:03;;;;;;;10.02;8.98;;;;;;;19.72;30.25;100066.88;5042008;27;102435;-87
2023/04/26 09:03:28;;;;;;;8.88;8.18;;;;;;;19.65;29.56;100066.50;4997098;28;101605;-81
2023/04/26 09:05:54;;;;;;;11.50;7.80;;;;;;;19.17;30.48;100082.50;5029954;27;97151;-82
2023/04/26 09:08:20;;;;;;;9.43;8.57;;;;;;;19.41;29.74;100093.13;5007622;27;97793;-85
2023/04/26 09:10:46;;;;;;;9.15;8.27;;;;;;;19.80;29.40;100086.63;5006935;27;101492;-84
2023/04/26 09:13:13;;;;;;;9.32;8.30;;;;;;;20.60;29.29;100077.81;5003501;27;100547;-83
2023/04/26 09:15:38;;;;;;;10.93;8.00;;;;;;;20.74;28.74;100077.56;5015742;27;96883;-82
2023/04/26 09:18:20;;;;;;;8.77;7.95;;;;;;;20.27;29.29;100095.44;5051904;27;96865;-87
2023/04/26 09:21:01;;;;;;;9.70;8.80;;;;;;;19.50;29.71;100079.13;5041391;27;100767;-89
2023/04/26 09:23:26;;;;;;;9.77;8.77;;;;;;;18.86;30.04;100086.53;5033973;27;100158;-88
2023/04/26 09:25:52;;;;;;;11.90;8.75;;;;;;;18.67;30.53;100090.47;5001320;27;96865;-87
2023/04/26 09:28:20;;;;;;;9.32;8.52;;;;;;;18.46;30.73;100102.63;5026992;27;96912;-86
2023/04/26 09:30:45;;;;;;;9.07;8.27;;;;;;;17.93;32.36;100094.75;4994472;28;101852;-88
2023/04/26 09:33:11;;;;;;;9.57;8.55;;;;;;;17.43;34.08;100106.94;4999553;28;102029;-86
2023/04/26 09:35:37;;;;;;;12.15;8.55;;;;;;;17.10;35.17;100104.66;5029190;27;97005;-87
2023/04/26 09:38:14;;;;;;;9.68;8.80;;;;;;;18.11;34.08;100103.28;5022430;27;96875;-89
2023/04/26 09:40:48;;;;;;;10.35;9.15;;;;;;;18.60;32.57;100083.91;5011678;28;101295;-88
2023/04/26 09:43:21;;;;;;;8.10;7.40;;;;;;;19.54;31.89;100093.91;5004335;28;99815;-88
2023/04/26 09:45:49;;;;;;;9.13;8.38;;;;;;;20.01;31.33;100091.28;5023962;28;97034;-85
2023/04/26 09:48:25;;;;;;;10.85;8.30;;;;;;;20.29;30.75;100088.19;5032683;27;96925;-87
2023/04/26 09:50:53;;;;;;;8.82;8.02;;;;;;;20.38;30.28;100083.94;5012847;28;100377;-85
2023/04/26 09:53:36;;;;;;;9.30;8.50;;;;;;;19.99;29.95;100077.25;5018498;28;98405;-86
2023/04/26 09:56:08;;;;;;;9.70;8.90;;;;;;;19.69;29.40;100094.59;5048396;27;96891;-85
2023/04/26 09:58:36;;;;;;;6.78;6.38;;;;;;;19.09;29.78;100090.19;5026920;28;96759;-84
2023/04/26 10:01:03;;;;;;;8.85;8.05;;;;;;;18.51;30.71;100090.72;5030580;28;97317;-85
2023/04/26 10:03:31;;;;;;;8.65;7.85;;;;;;;18.22;31.21;100091.91;5000529;27;100041;-87
2023/04/26 10:05:56;;;;;;;9.93;8.32;;;;;;;18.12;32.18;100094.34;5044009;27;96758;-86
2023/04/26 10:08:22;;;;;;;8.95;8.15;;;;;;;18.28;32.08;100083.50;5011600;28;97030;-86
2023/04/26 10:10:48;;;;;;;8.68;7.38;;;;;;;18.31;32.89;100094.78;5024360;28;101383;-90
2023/04/26 10:13:15;;;;;;;9.18;8.27;;;;;;;18.07;32.81;100077.91;5025636;27;97489;-84
2023/04/26 10:15:41;;;;;;;10.02;8.90;;;;;;;18.01;32.13;100092.44;5006917;27;97584;-85
2023/04/26 10:18:07;;;;;;;8.82;8.02;;;;;;;18.19;32.26;100081.50;5018944;28;96920;-83
2023/04/26 10:20:34;;;;;;;9.35;8.45;;;;;;;18.34;31.79;100083.09;5027928;27;102093;-83
2023/04/26 10:23:00;;;;;;;9.88;8.60;;;;;;;18.30;31.94;100078.94;5011222;28;101404;-83
2023/04/26 10:25:37;;;;;;;9.07;8.25;;;;;;;18.21;32.19;100060.97;4986080;28;97284;-81
2023/04/26 10:28:03;;;;;;;9.57;8.70;;;;;;;18.15;31.67;100058.75;5045024;27;96968;-81
2023/04/26 10:30:29;;;;;;;9.48;8.68;;;;;;;17.98;31.17;100070.56;5017000;27;101895;-84
2023/04/26 10:32:54;;;;;;;9.73;8.80;;;;;;;17.73;31.13;100085.47;5033616;27;97898;-82
2023/04/26 10:35:21;;;;;;;9.43;8.63;;;;;;;17.58;31.09;100081.19;5025143;27;96994;-82
2023/04/26 10:37:59;;;;;;;10.02;9.00;;;;;;;17.37;31.16;100096.75;5056098;27;97249;-82
2023/04/26 10:40:27;;;;;;;10.82;9.27;;;;;;;17.16;31.54;100101.63;5029454;27;99116;-82
2023/04/26 10:43:14;;;;;;;11.35;8.68;;;;;;;16.88;33.01;100110.50;5015351;28;98327;-82
2023/04/26 10:45:41;;;;;;;8.55;7.85;;;;;;;16.51;33.67;100089.78;5028079;27;97573;-81
2023/04/26 10:48:20;;;;;;;10.07;8.80;;;;;;;16.35;34.47;100096.13;4992335;27;97137;-82
2023/04/26 10:53:24;;;;;;;9.88;8.82;;;;;;;16.25;33.94;100101.13;5045158;27;101521;-81
2023/04/26 10:55:50;;;;;;;9.57;8.77;;;;;;;16.20;34.22;100097.91;5013308;28;97181;-81
2023/04/26 10:58:28;;;;;;;8.70;8.00;;;;;;;16.28;33.52;100096.50;5023261;28;97109;-84
2023/04/26 11:01:19;;;;;;;8.32;7.75;;;;;;;16.36;33.34;100096.03;5029878;27;101255;-82
2023/04/26 11:03:57;;;;;;;8.85;8.13;;;;;;;16.38;32.63;100090.66;5009797;28;101541;-82
2023/04/26 11:06:23;;;;;;;9.07;8.38;;;;;;;16.32;32.89;100083.06;5030141;28;97081;-80
2023/04/26 11:08:50;;;;;;;9.43;8.65;;;;;;;16.25;32.55;100098.47;5007130;27;97781;-84
2023/04/26 11:11:18;;;;;;;13.15;8.65;;;;;;;16.04;32.67;100104.13;5049348;27;97703;-82
2023/04/26 11:13:44;;;;;;;9.30;8.43;;;;;;;15.78;33.71;100103.03;5003089;27;101314;-82
2023/04/26 11:16:14;;;;;;;11.80;9.27;;;;;;;15.77;34.01;100116.38;5013608;28;96840;-80
2023/04/26 11:18:42;;;;;;;8.85;8.15;;;;;;;15.59;34.71;100097.97;5028914;28;97110;-81
2023/04/26 11:21:08;;;;;;;9.77;8.80;;;;;;;15.46;33.71;100093.47;5046667;27;97426;-82
2023/04/26 11:23:35;;;;;;;9.98;8.10;;;;;;;15.49;34.33;100117.94;4995285;28;100994;-84